createdAt,value
2019-01-06T00:00:15.548Z,98.12
2019-01-06T00:01:15.555Z,98.21
2019-01-06T00:02:15.572Z,98.12
2019-01-06T00:03:15.581Z,97.55
2019-01-06T00:04:15.597Z,97.07
2019-01-06T00:05:15.605Z,97.27
2019-01-06T00:06:15.620Z,96.98
2019-01-06T00:07:15.628Z,97.36
2019-01-06T00:08:15.641Z,97.64
2019-01-06T00:09:15.658Z,97.45
2019-01-06T00:10:15.669Z,97.07
2019-01-06T00:11:15.678Z,97.07
2019-01-06T00:12:15.694Z,97.74
2019-01-06T00:13:15.703Z,97.55
2019-01-06T00:14:15.721Z,97.17
2019-01-06T00:15:15.731Z,97.74
2019-01-06T00:16:15.741Z,97.74
2019-01-06T00:17:15.764Z,98.59
2019-01-06T00:18:15.768Z,98.40
2019-01-06T00:19:15.782Z,97.92
2019-01-06T00:20:15.794Z,97.74
2019-01-06T00:21:15.810Z,98.12
2019-01-06T00:22:15.818Z,98.31
2019-01-06T00:23:15.832Z,98.69
2019-01-06T00:24:15.840Z,98.88
2019-01-06T00:25:15.852Z,98.69
2019-01-06T00:26:15.869Z,97.92
2019-01-06T00:27:15.877Z,97.92
2019-01-06T00:28:15.894Z,97.64
2019-01-06T00:29:15.902Z,98.02
2019-01-06T00:30:15.915Z,97.83
2019-01-06T00:31:15.942Z,98.12
2019-01-06T00:32:15.942Z,97.74
2019-01-06T00:33:15.961Z,98.21
2019-01-06T00:34:15.973Z,98.12
2019-01-06T00:35:15.981Z,98.12
2019-01-06T00:36:15.994Z,98.12
2019-01-06T00:37:16.006Z,97.74
2019-01-06T00:38:16.017Z,98.02
2019-01-06T00:39:16.032Z,98.12
2019-01-06T00:40:16.040Z,98.50
2019-01-06T00:41:16.055Z,98.79
2019-01-06T00:42:16.068Z,98.69
2019-01-06T00:43:16.081Z,98.12
2019-01-06T00:44:16.095Z,97.64
2019-01-06T00:45:16.104Z,98.02
2019-01-06T00:46:16.116Z,97.64
2019-01-06T00:47:16.133Z,98.12
2019-01-06T00:48:16.144Z,97.55
2019-01-06T00:49:16.153Z,97.27
2019-01-06T00:50:16.170Z,98.69
2019-01-06T00:51:16.184Z,98.12
2019-01-06T00:52:16.205Z,98.12
2019-01-06T00:53:16.210Z,98.59
2019-01-06T00:54:16.220Z,98.31
2019-01-06T00:55:16.232Z,97.55
2019-01-06T00:56:16.331Z,97.74
2019-01-06T00:57:16.274Z,98.31
2019-01-06T00:58:16.271Z,98.21
2019-01-06T00:59:16.284Z,98.50
2019-01-06T01:00:16.297Z,98.69
2019-01-06T01:01:16.306Z,97.74
2019-01-06T01:02:16.318Z,97.45
2019-01-06T01:03:16.329Z,97.17
2019-01-06T01:04:16.352Z,96.69
2019-01-06T01:05:16.358Z,96.50
2019-01-06T01:06:16.370Z,95.65
2019-01-06T01:07:16.378Z,95.75
2019-01-06T01:08:16.394Z,95.65
2019-01-06T01:09:16.404Z,95.08
2019-01-06T01:10:16.421Z,94.79
2019-01-06T01:11:16.431Z,94.70
2019-01-06T01:12:16.441Z,95.12
2019-01-06T01:13:16.459Z,94.46
2019-01-06T01:14:16.470Z,94.18
2019-01-06T01:15:16.486Z,94.46
2019-01-06T01:16:16.494Z,94.27
2019-01-06T01:17:16.503Z,94.18
2019-01-06T01:18:16.518Z,93.70
2019-01-06T01:19:16.535Z,94.08
2019-01-06T01:20:16.546Z,93.32
2019-01-06T01:21:16.554Z,94.18
2019-01-06T01:22:16.567Z,94.08
2019-01-06T01:23:16.586Z,94.27
2019-01-06T01:24:16.597Z,94.08
2019-01-06T01:25:16.609Z,94.56
2019-01-06T01:26:16.624Z,94.56
2019-01-06T01:27:16.630Z,94.56
2019-01-06T01:28:16.641Z,94.37
2019-01-06T01:29:16.652Z,94.46
2019-01-06T01:30:16.673Z,94.18
2019-01-06T01:31:16.681Z,93.51
2019-01-06T01:32:16.690Z,93.89
2019-01-06T01:33:16.702Z,94.37
2019-01-06T01:34:16.720Z,93.60
2019-01-06T01:35:16.731Z,93.89
2019-01-06T01:36:16.740Z,93.80
2019-01-06T01:37:16.758Z,93.89
2019-01-06T01:38:16.764Z,94.46
2019-01-06T01:39:16.777Z,94.37
2019-01-06T01:40:16.795Z,94.18
2019-01-06T01:41:16.812Z,94.37
2019-01-06T01:42:16.818Z,94.08
2019-01-06T01:43:16.868Z,94.08
2019-01-06T01:44:16.848Z,94.37
2019-01-06T01:45:16.853Z,94.27
2019-01-06T01:46:16.869Z,94.27
2019-01-06T01:47:16.877Z,93.80
2019-01-06T01:48:16.889Z,94.37
2019-01-06T01:49:16.898Z,94.18
2019-01-06T01:50:16.913Z,94.37
2019-01-06T01:51:16.929Z,93.89
2019-01-06T01:52:16.946Z,94.56
2019-01-06T01:53:16.948Z,94.74
2019-01-06T01:54:16.962Z,94.56
2019-01-06T01:55:16.983Z,94.65
2019-01-06T01:56:16.984Z,94.18
2019-01-06T01:57:16.998Z,94.18
2019-01-06T01:58:17.013Z,93.99
2019-01-06T01:59:17.046Z,94.37
2019-01-06T02:00:17.039Z,94.65
2019-01-06T02:01:17.055Z,94.56
2019-01-06T02:02:17.059Z,94.56
2019-01-06T02:03:17.075Z,94.65
2019-01-06T02:04:17.087Z,94.46
2019-01-06T02:05:17.100Z,94.74
2019-01-06T02:06:17.116Z,94.56
2019-01-06T02:07:17.124Z,94.84
2019-01-06T02:08:17.132Z,94.93
2019-01-06T02:09:17.146Z,94.37
2019-01-06T02:10:17.184Z,94.93
2019-01-06T02:11:17.175Z,94.84
2019-01-06T02:12:17.180Z,94.74
2019-01-06T02:13:17.195Z,94.46
2019-01-06T02:14:17.206Z,94.65
2019-01-06T02:15:17.221Z,95.03
2019-01-06T02:16:17.238Z,94.84
2019-01-06T02:17:17.246Z,94.65
2019-01-06T02:18:17.259Z,94.93
2019-01-06T02:19:17.271Z,95.22
2019-01-06T02:20:17.292Z,94.56
2019-01-06T02:21:17.294Z,94.37
2019-01-06T02:22:17.304Z,95.03
2019-01-06T02:23:17.321Z,94.74
2019-01-06T02:24:17.332Z,95.22
2019-01-06T02:25:17.353Z,95.60
2019-01-06T02:26:17.353Z,95.51
2019-01-06T02:27:17.375Z,95.31
2019-01-06T02:28:17.386Z,95.70
2019-01-06T02:29:17.393Z,95.51
2019-01-06T02:30:17.404Z,95.41
2019-01-06T02:31:17.419Z,95.51
2019-01-06T02:32:17.428Z,95.60
2019-01-06T02:33:17.446Z,95.60
2019-01-06T02:34:17.451Z,95.60
2019-01-06T02:35:17.466Z,95.41
2019-01-06T02:36:17.481Z,95.12
2019-01-06T02:37:17.490Z,95.51
2019-01-06T02:38:17.504Z,95.51
2019-01-06T02:39:17.531Z,95.51
2019-01-06T02:40:17.528Z,95.31
2019-01-06T02:41:17.539Z,94.93
2019-01-06T02:42:17.560Z,95.41
2019-01-06T02:43:17.573Z,95.03
2019-01-06T02:44:17.576Z,94.46
2019-01-06T02:45:17.588Z,94.84
2019-01-06T02:46:17.599Z,95.03
2019-01-06T02:47:17.629Z,95.03
2019-01-06T02:48:17.634Z,95.03
2019-01-06T02:49:17.644Z,95.22
2019-01-06T02:50:17.661Z,95.22
2019-01-06T02:51:17.660Z,94.84
2019-01-06T02:52:17.676Z,94.93
2019-01-06T02:53:17.684Z,94.74
2019-01-06T02:54:17.703Z,95.22
2019-01-06T02:55:17.725Z,95.03
2019-01-06T02:56:17.722Z,94.74
2019-01-06T02:57:17.736Z,94.74
2019-01-06T02:58:17.748Z,95.03
2019-01-06T02:59:17.760Z,94.84
2019-01-06T03:00:17.774Z,95.41
2019-01-06T03:01:17.784Z,95.22
2019-01-06T03:02:17.801Z,94.74
2019-01-06T03:03:17.812Z,94.93
2019-01-06T03:04:17.817Z,94.93
2019-01-06T03:05:17.834Z,94.65
2019-01-06T03:06:17.844Z,94.56
2019-01-06T03:07:17.865Z,94.46
2019-01-06T03:08:17.879Z,94.46
2019-01-06T03:09:17.885Z,94.74
2019-01-06T03:38:44.967Z,94.46
2019-01-06T03:39:44.941Z,94.18
2019-01-06T03:41:36.858Z,94.56
2019-01-06T03:42:36.860Z,94.27
2019-01-06T03:44:28.802Z,94.08
2019-01-06T03:45:28.793Z,93.99
2019-01-06T03:47:20.687Z,94.65
2019-01-06T03:48:20.685Z,94.18
2019-01-06T03:50:12.606Z,94.46
2019-01-06T03:51:12.592Z,94.37
2019-01-06T03:53:04.509Z,94.37
2019-01-06T03:54:04.497Z,94.84
2019-01-06T03:55:56.414Z,94.74
2019-01-06T03:56:56.411Z,94.65
2019-01-06T03:58:48.307Z,94.65
2019-01-06T03:59:48.315Z,94.74
2019-01-06T04:01:40.237Z,94.74
2019-01-06T04:02:40.223Z,94.74
2019-01-06T04:04:32.147Z,94.18
2019-01-06T04:05:32.137Z,94.18
2019-01-06T04:07:24.045Z,94.18
2019-01-06T04:08:24.046Z,94.18
2019-01-06T04:10:15.975Z,94.65
2019-01-06T04:11:15.956Z,94.84
2019-01-06T04:13:07.869Z,94.56
2019-01-06T04:14:07.863Z,94.93
2019-01-06T04:15:59.786Z,94.65
2019-01-06T04:16:59.771Z,94.84
2019-01-06T04:18:51.681Z,94.65
2019-01-06T04:19:51.681Z,94.56
2019-01-06T04:21:43.608Z,95.31
2019-01-06T04:22:43.621Z,94.93
2019-01-06T04:24:35.498Z,95.31
2019-01-06T04:25:35.498Z,95.70
2019-01-06T04:27:27.428Z,95.89
2019-01-06T04:28:27.409Z,95.51
2019-01-06T04:30:19.332Z,95.70
2019-01-06T04:31:19.320Z,95.70
2019-01-06T04:33:12.744Z,95.51
2019-01-06T04:34:12.743Z,95.98
2019-01-06T04:36:04.652Z,95.60
2019-01-06T04:37:04.633Z,95.60
2019-01-06T04:38:56.558Z,95.70
2019-01-06T04:39:56.571Z,95.51
2019-01-06T04:41:48.503Z,95.79
2019-01-06T04:42:48.474Z,95.60
2019-01-06T04:44:40.383Z,95.51
2019-01-06T04:45:40.387Z,95.60
2019-01-06T04:47:32.314Z,95.79
2019-01-06T04:48:32.293Z,96.17
2019-01-06T04:50:24.706Z,95.98
2019-01-06T04:51:24.713Z,95.79
2019-01-06T04:53:16.640Z,95.79
2019-01-06T04:54:16.624Z,95.98
2019-01-06T04:56:08.534Z,95.98
2019-01-06T04:57:08.535Z,95.89
2019-01-06T04:59:00.455Z,96.45
2019-01-06T05:00:00.441Z,96.26
2019-01-06T05:01:52.365Z,96.36
2019-01-06T05:02:52.368Z,96.26
2019-01-06T05:04:44.302Z,96.26
2019-01-06T05:05:44.287Z,96.55
2019-01-06T05:07:36.212Z,95.70
2019-01-06T05:08:36.212Z,95.70
2019-01-06T05:10:28.148Z,95.98
2019-01-06T05:11:28.123Z,95.60
2019-01-06T05:13:20.558Z,95.79
2019-01-06T05:14:20.538Z,95.79
2019-01-06T05:16:12.458Z,96.08
2019-01-06T05:17:12.455Z,95.98
2019-01-06T05:19:04.418Z,95.60
2019-01-06T05:20:04.370Z,95.51
2019-01-06T05:21:56.272Z,95.22
2019-01-06T05:22:56.276Z,95.98
2019-01-06T05:24:48.208Z,95.98
2019-01-06T05:25:48.192Z,95.98
2019-01-06T05:27:40.105Z,95.79
2019-01-06T05:28:40.106Z,95.98
2019-01-06T05:30:32.028Z,95.98
2019-01-06T05:31:32.014Z,96.08
2019-01-06T05:33:23.925Z,96.08
2019-01-06T05:34:23.921Z,96.45
2019-01-06T05:36:15.844Z,95.79
2019-01-06T05:37:15.836Z,96.08
2019-01-06T05:39:07.752Z,95.89
2019-01-06T05:40:07.765Z,95.70
2019-01-06T05:41:59.702Z,95.89
2019-01-06T05:42:59.667Z,95.60
2019-01-06T05:44:51.587Z,95.98
2019-01-06T05:45:51.587Z,95.60
2019-01-06T05:47:43.516Z,95.41
2019-01-06T05:48:43.494Z,95.22
2019-01-06T05:50:35.447Z,95.41
2019-01-06T05:51:35.424Z,95.31
2019-01-06T05:53:27.324Z,95.60
2019-01-06T05:54:27.328Z,95.70
2019-01-06T05:56:19.256Z,95.31
2019-01-06T05:57:19.235Z,95.51
2019-01-06T05:59:11.164Z,95.51
2019-01-06T06:00:11.164Z,95.60
2019-01-06T06:02:03.175Z,95.51
2019-01-06T06:03:03.092Z,95.41
2019-01-06T06:04:55.489Z,95.12
2019-01-06T06:05:55.494Z,95.03
2019-01-06T06:07:47.421Z,94.56
2019-01-06T06:08:47.403Z,94.74
2019-01-06T06:10:39.311Z,94.37
2019-01-06T06:11:39.312Z,94.65
2019-01-06T06:13:31.247Z,94.74
2019-01-06T06:14:31.228Z,94.37
2019-01-06T06:16:23.640Z,94.18
2019-01-06T06:17:23.647Z,94.37
2019-01-06T06:19:15.566Z,93.89
2019-01-06T06:20:15.563Z,93.80
2019-01-06T06:22:07.492Z,94.08
2019-01-06T06:23:07.476Z,93.60
2019-01-06T06:24:59.382Z,93.89
2019-01-06T06:25:59.387Z,93.80
2019-01-06T06:27:51.310Z,94.18
2019-01-06T06:28:51.294Z,93.80
2019-01-06T06:30:43.208Z,93.80
2019-01-06T06:31:43.206Z,93.80
2019-01-06T06:33:35.146Z,94.27
2019-01-06T06:34:35.121Z,94.27
2019-01-06T06:36:27.030Z,93.89
2019-01-06T06:37:27.032Z,94.18
2019-01-06T06:39:19.452Z,93.89
2019-01-06T06:40:19.451Z,93.89
2019-01-06T06:42:11.349Z,93.89
2019-01-06T06:43:11.352Z,93.89
2019-01-06T06:45:03.285Z,93.89
2019-01-06T06:46:03.278Z,94.18
2019-01-06T06:47:55.229Z,93.89
2019-01-06T06:48:55.202Z,93.89
2019-01-06T06:50:47.111Z,93.89
2019-01-06T06:51:47.118Z,93.89
2019-01-06T06:53:39.045Z,93.89
2019-01-06T06:54:39.024Z,94.08
2019-01-06T06:56:30.937Z,93.60
2019-01-06T06:57:30.946Z,94.18
2019-01-06T06:58:30.952Z,94.18
2019-01-06T06:59:30.988Z,94.74
2019-01-06T07:00:30.982Z,94.74
2019-01-06T07:01:30.988Z,94.84
2019-01-06T07:02:31.014Z,94.65
2019-01-06T07:03:31.012Z,95.22
2019-01-06T07:04:31.026Z,94.84
2019-01-06T07:05:31.045Z,95.03
2019-01-06T07:06:31.051Z,94.18
2019-01-06T07:07:31.070Z,94.18
2019-01-06T07:08:31.078Z,94.18
2019-01-06T07:09:31.086Z,94.37
2019-01-06T07:10:31.104Z,94.27
2019-01-06T07:11:31.119Z,94.56
2019-01-06T07:12:31.131Z,94.37
2019-01-06T07:13:31.158Z,94.18
2019-01-06T07:14:31.154Z,94.56
2019-01-06T07:15:31.169Z,94.74
2019-01-06T07:16:31.179Z,94.27
2019-01-06T07:17:31.188Z,95.03
2019-01-06T07:18:31.201Z,95.12
2019-01-06T07:19:31.216Z,94.93
2019-01-06T07:20:31.229Z,95.41
2019-01-06T07:21:31.240Z,95.22
2019-01-06T07:22:31.276Z,95.51
2019-01-06T07:23:31.270Z,95.60
2019-01-06T07:24:31.280Z,95.41
2019-01-06T07:25:31.288Z,95.31
2019-01-06T07:26:31.302Z,95.51
2019-01-06T07:27:31.314Z,95.79
2019-01-06T07:28:31.334Z,95.60
2019-01-06T07:29:31.348Z,95.60
2019-01-06T07:30:31.346Z,94.93
2019-01-06T07:31:31.365Z,95.31
2019-01-06T07:32:31.378Z,95.31
2019-01-06T07:33:31.385Z,95.41
2019-01-06T07:34:31.401Z,95.03
2019-01-06T07:35:31.422Z,95.12
2019-01-06T07:36:31.426Z,95.12
2019-01-06T07:37:31.439Z,95.60
2019-01-06T07:38:31.449Z,95.03
2019-01-06T07:39:31.460Z,95.22
2019-01-06T07:40:31.478Z,95.03
2019-01-06T07:41:31.487Z,95.22
2019-01-06T07:42:31.501Z,95.31
2019-01-06T07:43:31.515Z,95.22
2019-01-06T07:44:31.526Z,94.56
2019-01-06T07:45:31.535Z,95.22
2019-01-06T07:46:31.551Z,95.51
2019-01-06T07:47:31.565Z,95.03
2019-01-06T07:48:31.574Z,95.03
2019-01-06T07:49:31.586Z,95.31
2019-01-06T07:50:31.600Z,95.51
2019-01-06T07:51:31.611Z,95.22
2019-01-06T07:52:31.633Z,95.70
2019-01-06T07:53:31.633Z,95.70
2019-01-06T07:54:31.653Z,95.79
2019-01-06T07:55:31.658Z,94.84
2019-01-06T07:56:31.671Z,95.31
2019-01-06T07:57:31.700Z,94.84
2019-01-06T07:58:31.698Z,94.56
2019-01-06T07:59:31.719Z,94.65
2019-01-06T08:00:31.726Z,94.37
2019-01-06T08:01:31.741Z,94.27
2019-01-06T08:02:31.746Z,93.60
2019-01-06T08:03:31.764Z,93.80
2019-01-06T08:04:31.777Z,94.27
2019-01-06T08:05:31.788Z,94.08
2019-01-06T08:06:31.795Z,94.37
2019-01-06T08:07:31.813Z,94.37
2019-01-06T08:08:31.824Z,94.37
2019-01-06T08:09:31.837Z,94.18
2019-01-06T08:10:31.914Z,94.74
2019-01-06T08:11:31.864Z,94.46
2019-01-06T08:12:31.875Z,94.84
2019-01-06T08:13:31.891Z,94.56
2019-01-06T08:14:31.898Z,94.84
2019-01-06T08:15:31.910Z,94.18
2019-01-06T08:16:31.921Z,94.65
2019-01-06T08:17:31.933Z,94.56
2019-01-06T08:18:31.947Z,94.65
2019-01-06T08:19:31.961Z,94.65
2019-01-06T08:20:32.922Z,94.56
2019-01-06T08:21:31.991Z,94.46
2019-01-06T08:22:31.998Z,94.74
2019-01-06T08:23:32.008Z,94.74
2019-01-06T08:24:32.025Z,94.46
2019-01-06T08:25:32.032Z,94.37
2019-01-06T08:26:32.052Z,94.18
2019-01-06T08:27:32.068Z,94.37
2019-01-06T08:28:32.083Z,93.60
2019-01-06T08:29:32.086Z,93.89
2019-01-06T08:30:32.099Z,93.60
2019-01-06T08:31:32.114Z,93.80
2019-01-06T08:32:32.129Z,94.18
2019-01-06T08:33:32.136Z,93.80
2019-01-06T08:34:32.148Z,93.60
2019-01-06T08:35:32.163Z,93.80
2019-01-06T08:36:32.173Z,93.99
2019-01-06T08:37:32.188Z,93.80
2019-01-06T08:38:32.196Z,94.08
2019-01-06T08:39:32.211Z,93.80
2019-01-06T08:40:32.224Z,93.80
2019-01-06T08:41:32.234Z,93.70
2019-01-06T08:42:32.245Z,93.51
2019-01-06T08:43:32.259Z,93.51
2019-01-06T08:44:32.272Z,93.60
2019-01-06T08:45:34.252Z,93.60
2019-01-06T08:46:32.298Z,93.51
2019-01-06T08:47:32.313Z,93.32
2019-01-06T08:48:32.335Z,93.46
2019-01-06T08:49:32.335Z,93.51
2019-01-06T08:50:32.346Z,93.60
2019-01-06T08:51:32.364Z,93.70
2019-01-06T08:52:32.373Z,93.41
2019-01-06T08:53:32.387Z,93.70
2019-01-06T08:54:32.403Z,93.70
2019-01-06T08:55:32.415Z,93.80
2019-01-06T08:56:32.596Z,93.99
2019-01-06T08:57:32.436Z,93.80
2019-01-06T08:58:32.453Z,93.51
2019-01-06T08:59:32.458Z,93.99
2019-01-06T09:00:32.482Z,93.80
2019-01-06T09:01:32.485Z,93.89
2019-01-06T09:02:32.498Z,93.80
2019-01-06T09:03:32.515Z,93.60
2019-01-06T09:04:32.526Z,93.51
2019-01-06T09:05:32.571Z,93.41
2019-01-06T09:06:32.550Z,93.46
2019-01-06T09:07:32.563Z,93.80
2019-01-06T09:08:32.587Z,93.75
2019-01-06T09:09:32.590Z,93.80
2019-01-06T09:10:32.602Z,93.41
2019-01-06T09:11:32.609Z,93.84
2019-01-06T09:12:32.627Z,94.37
2019-01-06T09:13:32.639Z,94.46
2019-01-06T09:14:32.648Z,94.03
2019-01-06T09:15:32.666Z,94.37
2019-01-06T09:16:32.677Z,94.03
2019-01-06T09:17:32.688Z,94.08
2019-01-06T09:18:32.706Z,94.32
2019-01-06T09:19:32.715Z,94.23
2019-01-06T09:20:32.730Z,94.03
2019-01-06T09:21:32.736Z,94.23
2019-01-06T09:22:32.751Z,94.51
2019-01-06T09:23:32.770Z,95.08
2019-01-06T09:24:32.778Z,94.98
2019-01-06T09:25:40.719Z,95.27
2019-01-06T09:26:32.825Z,95.27
2019-01-06T09:27:32.822Z,94.70
2019-01-06T09:28:32.833Z,94.79
2019-01-06T09:29:32.876Z,94.98
2019-01-06T09:30:32.854Z,95.08
2019-01-06T09:31:32.868Z,94.89
2019-01-06T09:32:32.878Z,95.27
2019-01-06T09:33:32.893Z,94.98
2019-01-06T09:34:32.903Z,94.89
2019-01-06T09:35:32.923Z,95.36
2019-01-06T09:36:32.933Z,94.79
2019-01-06T09:37:32.944Z,94.60
2019-01-06T09:38:32.957Z,94.70
2019-01-06T09:39:32.967Z,94.51
2019-01-06T09:40:32.987Z,94.60
2019-01-06T09:41:32.993Z,94.51
2019-01-06T09:42:33.009Z,95.08
2019-01-06T09:43:33.021Z,94.60
2019-01-06T09:44:33.033Z,94.98
2019-01-06T09:45:33.042Z,95.17
2019-01-06T09:46:33.080Z,94.98
2019-01-06T09:47:33.071Z,95.27
2019-01-06T09:48:33.087Z,95.65
2019-01-06T09:49:33.095Z,95.27
2019-01-06T09:50:33.113Z,95.17
2019-01-06T09:51:33.133Z,95.46
2019-01-06T09:52:33.140Z,95.17
2019-01-06T09:53:33.148Z,95.60
2019-01-06T09:54:33.174Z,95.22
2019-01-06T09:55:33.172Z,95.70
2019-01-06T09:56:33.192Z,96.17
2019-01-06T09:57:33.200Z,96.08
2019-01-06T09:58:33.211Z,96.84
2019-01-06T09:59:33.227Z,96.84
2019-01-06T10:00:33.241Z,96.36
2019-01-06T10:01:33.255Z,96.55
2019-01-06T10:02:33.265Z,96.55
2019-01-06T10:03:33.280Z,97.41
2019-01-06T10:04:35.132Z,97.69
2019-01-06T10:05:33.305Z,96.93
2019-01-06T10:06:33.316Z,96.36
2019-01-06T10:07:33.327Z,96.84
2019-01-06T10:08:33.346Z,96.93
2019-01-06T10:09:33.354Z,97.12
2019-01-06T10:10:33.370Z,96.84
2019-01-06T10:11:33.384Z,96.65
2019-01-06T10:12:33.402Z,96.93
2019-01-06T10:13:33.411Z,96.65
2019-01-06T10:14:33.421Z,96.65
2019-01-06T10:15:33.437Z,97.03
2019-01-06T10:16:33.451Z,97.60
2019-01-06T10:17:33.461Z,97.12
2019-01-06T10:18:33.478Z,97.22
2019-01-06T10:19:33.493Z,97.31
2019-01-06T10:20:33.522Z,97.97
2019-01-06T10:21:33.514Z,98.07
2019-01-06T10:22:33.528Z,98.26
2019-01-06T10:23:33.548Z,98.26
2019-01-06T10:24:33.555Z,98.74
2019-01-06T10:25:33.569Z,98.26
2019-01-06T10:26:33.582Z,98.45
2019-01-06T10:27:33.594Z,98.17
2019-01-06T10:28:33.608Z,98.17
2019-01-06T10:29:33.640Z,98.93
2019-01-06T10:30:33.637Z,98.17
2019-01-06T10:31:33.646Z,98.55
2019-01-06T10:32:33.662Z,98.83
2019-01-06T10:33:33.672Z,97.60
2019-01-06T10:34:33.686Z,97.97
2019-01-06T10:35:33.701Z,97.60
2019-01-06T10:36:33.716Z,97.88
2019-01-06T10:37:33.735Z,97.88
2019-01-06T10:38:33.742Z,97.69
2019-01-06T10:39:34.967Z,97.60
2019-01-06T10:40:33.773Z,97.60
2019-01-06T10:41:33.783Z,98.12
2019-01-06T10:42:33.797Z,98.41
2019-01-06T10:43:33.807Z,97.93
2019-01-06T10:44:33.826Z,98.60
2019-01-06T10:45:33.838Z,98.03
2019-01-06T10:46:33.849Z,98.22
2019-01-06T10:47:33.864Z,98.03
2019-01-06T10:48:33.885Z,97.55
2019-01-06T10:49:33.890Z,98.17
2019-01-06T10:50:33.902Z,98.79
2019-01-06T10:51:33.914Z,98.07
2019-01-06T10:52:33.931Z,98.07
2019-01-06T10:53:33.950Z,97.60
2019-01-06T10:54:33.959Z,97.22
2019-01-06T10:55:33.979Z,97.03
2019-01-06T10:56:33.984Z,96.93
2019-01-06T10:57:34.005Z,96.84
2019-01-06T10:58:34.015Z,96.84
2019-01-06T10:59:34.027Z,96.84
2019-01-06T11:00:34.040Z,96.74
2019-01-06T11:01:34.060Z,96.45
2019-01-06T11:02:34.069Z,96.36
2019-01-06T11:03:34.080Z,96.84
2019-01-06T11:04:34.094Z,96.26
2019-01-06T11:05:34.172Z,96.55
2019-01-06T11:06:34.119Z,96.84
2019-01-06T11:07:34.132Z,96.93
2019-01-06T11:08:34.157Z,96.93
2019-01-06T11:09:34.162Z,97.03
2019-01-06T11:10:34.177Z,98.36
2019-01-06T11:11:34.187Z,99.11
2019-01-06T11:12:34.203Z,99.50
2019-01-06T11:13:34.234Z,99.99
2019-01-06T11:14:34.238Z,99.99
2019-01-06T11:15:34.245Z,98.36
2019-01-06T11:16:34.253Z,98.64
2019-01-06T11:17:34.269Z,98.64
2019-01-06T11:18:34.278Z,99.02
2019-01-06T11:19:34.297Z,98.36
2019-01-06T11:20:34.311Z,99.02
2019-01-06T11:21:34.319Z,99.11
2019-01-06T11:22:34.334Z,99.02
2019-01-06T11:23:34.345Z,98.93
2019-01-06T11:24:34.360Z,97.88
2019-01-06T11:25:34.383Z,98.07
2019-01-06T11:26:34.391Z,98.83
2019-01-06T11:27:34.399Z,98.45
2019-01-06T11:28:34.416Z,98.36
2019-01-06T11:29:34.426Z,98.45
2019-01-06T11:30:34.443Z,97.88
2019-01-06T11:31:34.456Z,99.02
2019-01-06T11:32:34.465Z,98.45
2019-01-06T11:33:34.478Z,98.55
2019-01-06T11:34:34.494Z,98.93
2019-01-06T11:35:34.506Z,99.30
2019-01-06T11:36:34.527Z,99.50
2019-01-06T11:37:34.532Z,99.50
2019-01-06T11:38:34.545Z,99.30
2019-01-06T11:39:34.558Z,99.99
2019-01-06T11:40:34.573Z,99.99
2019-01-06T11:41:34.586Z,99.99
2019-01-06T11:42:34.601Z,99.97
2019-01-06T11:43:34.611Z,99.97
2019-01-06T11:44:34.626Z,99.99
2019-01-06T11:45:34.640Z,99.99
2019-01-06T11:46:34.654Z,99.99
2019-01-06T11:47:34.666Z,99.99
2019-01-06T11:48:34.681Z,99.78
2019-01-06T11:49:34.690Z,99.99
2019-01-06T11:50:34.705Z,99.99
2019-01-06T11:51:34.722Z,99.99
2019-01-06T11:52:34.729Z,99.99
2019-01-06T11:53:34.745Z,99.99
2019-01-06T11:54:34.757Z,99.84
2019-01-06T11:55:34.782Z,99.99
2019-01-06T11:56:34.783Z,99.99
2019-01-06T11:57:34.801Z,99.99
2019-01-06T11:58:34.814Z,99.99
2019-01-06T11:59:34.827Z,99.99
2019-01-06T12:00:34.840Z,99.99
2019-01-06T12:01:34.855Z,99.99
2019-01-06T12:02:39.017Z,99.99
2019-01-06T12:03:34.908Z,99.99
2019-01-06T12:04:34.890Z,99.99
2019-01-06T12:05:34.902Z,99.99
2019-01-06T12:06:34.922Z,99.99
2019-01-06T12:07:34.939Z,99.99
2019-01-06T12:08:40.967Z,99.99
2019-01-06T12:09:34.958Z,99.99
2019-01-06T12:10:34.977Z,99.99
2019-01-06T12:11:34.984Z,99.99
2019-01-06T12:12:34.999Z,99.99
2019-01-06T12:13:35.013Z,99.99
2019-01-06T12:14:35.040Z,99.99
2019-01-06T12:15:35.042Z,99.99
2019-01-06T12:16:35.057Z,99.99
2019-01-06T12:17:35.077Z,99.99
2019-01-06T12:18:35.083Z,99.99
2019-01-06T12:19:35.096Z,99.99
2019-01-06T12:20:35.117Z,99.99
2019-01-06T12:21:35.126Z,99.99
2019-01-06T12:22:35.139Z,99.99
2019-01-06T12:23:35.151Z,99.99
2019-01-06T12:24:35.167Z,99.99
2019-01-06T12:25:35.179Z,99.99
2019-01-06T12:26:35.196Z,99.99
2019-01-06T12:27:35.209Z,99.99
2019-01-06T12:28:35.225Z,99.99
2019-01-06T12:29:35.242Z,99.99
2019-01-06T12:30:35.254Z,99.99
2019-01-06T12:31:35.273Z,99.99
2019-01-06T12:32:35.286Z,99.99
2019-01-06T12:33:35.296Z,99.99
2019-01-06T12:34:35.314Z,99.99
2019-01-06T12:35:35.324Z,99.99
2019-01-06T12:36:35.337Z,99.99
2019-01-06T12:37:35.357Z,99.99
2019-01-06T12:38:35.376Z,99.99
2019-01-06T12:39:35.381Z,99.99
2019-01-06T12:40:35.398Z,99.99
2019-01-06T12:41:35.409Z,99.99
2019-01-06T12:42:35.422Z,99.99
2019-01-06T12:43:35.438Z,99.99
2019-01-06T12:44:35.454Z,99.99
2019-01-06T12:45:35.475Z,99.99
2019-01-06T12:46:35.490Z,99.99
2019-01-06T12:47:35.511Z,99.99
2019-01-06T12:48:35.511Z,99.99
2019-01-06T12:49:35.541Z,99.99
2019-01-06T12:50:35.538Z,99.99
2019-01-06T12:51:43.243Z,99.99
2019-01-06T12:52:35.570Z,99.99
2019-01-06T12:53:40.154Z,99.99
2019-01-06T12:54:35.596Z,99.99
2019-01-06T12:55:35.612Z,99.99
2019-01-06T12:56:35.621Z,99.99
2019-01-06T12:57:35.638Z,99.99
2019-01-06T12:58:35.650Z,99.99
2019-01-06T12:59:35.666Z,99.99
2019-01-06T13:00:35.682Z,99.99
2019-01-06T13:01:35.694Z,99.99
2019-01-06T13:02:35.708Z,99.99
2019-01-06T13:03:35.722Z,99.99
2019-01-06T13:04:35.736Z,99.99
2019-01-06T13:05:35.759Z,99.99
2019-01-06T13:06:35.765Z,99.99
2019-01-06T13:07:35.780Z,99.99
2019-01-06T13:08:35.794Z,99.99
2019-01-06T13:09:35.807Z,99.99
2019-01-06T13:10:35.822Z,99.99
2019-01-06T13:11:35.849Z,99.99
2019-01-06T13:12:35.867Z,99.99
2019-01-06T13:13:37.070Z,99.99
2019-01-06T13:14:35.877Z,99.99
2019-01-06T13:15:35.890Z,99.99
2019-01-06T13:16:35.906Z,99.99
2019-01-06T13:17:35.918Z,99.99
2019-01-06T13:18:35.940Z,99.99
2019-01-06T13:19:35.947Z,99.99
2019-01-06T13:20:35.963Z,99.99
2019-01-06T13:21:35.977Z,99.99
2019-01-06T13:22:35.993Z,99.99
2019-01-06T13:23:36.001Z,99.99
2019-01-06T13:24:36.019Z,99.99
2019-01-06T13:25:36.030Z,99.99
2019-01-06T13:26:36.048Z,99.99
2019-01-06T13:27:36.067Z,99.99
2019-01-06T13:28:36.077Z,99.99
2019-01-06T13:29:36.089Z,99.99
2019-01-06T13:30:36.107Z,99.99
2019-01-06T13:31:36.119Z,99.99
2019-01-06T13:32:36.132Z,99.99
2019-01-06T13:33:36.145Z,99.99
2019-01-06T13:34:36.159Z,99.99
2019-01-06T13:35:36.175Z,99.99
2019-01-06T13:36:36.184Z,99.99
2019-01-06T13:37:36.201Z,99.99
2019-01-06T13:38:36.217Z,99.99
2019-01-06T13:39:36.234Z,99.99
2019-01-06T13:40:36.247Z,99.99
2019-01-06T13:41:36.267Z,99.99
2019-01-06T13:42:36.270Z,99.99
2019-01-06T13:43:36.283Z,99.99
2019-01-06T13:44:36.298Z,99.99
2019-01-06T13:45:36.314Z,99.99
2019-01-06T13:46:36.333Z,99.84
2019-01-06T13:47:36.339Z,99.99
2019-01-06T13:48:36.359Z,99.99
2019-01-06T13:49:36.412Z,99.99
2019-01-06T13:50:36.381Z,99.99
2019-01-06T13:51:36.412Z,99.99
2019-01-06T13:52:36.407Z,99.99
2019-01-06T13:53:36.427Z,99.99
2019-01-06T13:54:36.439Z,99.99
2019-01-06T13:55:36.450Z,99.99
2019-01-06T13:56:36.475Z,99.99
2019-01-06T13:57:36.484Z,99.99
2019-01-06T13:58:36.491Z,99.99
2019-01-06T13:59:36.506Z,99.99
2019-01-06T14:00:36.524Z,99.99
2019-01-06T14:01:36.558Z,99.99
2019-01-06T14:02:36.547Z,99.99
2019-01-06T14:03:36.564Z,99.99
2019-01-06T14:04:36.584Z,99.99
2019-01-06T14:05:36.591Z,99.99
2019-01-06T14:06:36.602Z,99.99
2019-01-06T14:07:36.618Z,99.99
2019-01-06T14:08:36.641Z,99.99
2019-01-06T14:09:36.644Z,99.99
2019-01-06T14:10:36.659Z,99.99
2019-01-06T14:11:36.674Z,99.99
2019-01-06T14:12:36.691Z,99.99
2019-01-06T14:13:36.703Z,99.99
2019-01-06T14:14:36.712Z,99.99
2019-01-06T14:15:36.731Z,99.99
2019-01-06T14:16:36.747Z,99.99
2019-01-06T14:17:36.757Z,99.99
2019-01-06T14:18:36.770Z,99.99
2019-01-06T14:19:36.793Z,99.99
2019-01-06T14:20:36.799Z,99.99